Aviation Digital Data Service (ADDS)

Output produced by METARs form (0215 UTC 31 August 2014)
found at http://www.aviationweather.gov/adds/metars/
 
KATL 310137Z 3102/0106 VRB03KT P6SM VCSH SCT040 BKN100 
     TEMPO 3102/3104 VRB15G25KT 3SM TSRA BKN040CB 
     FM310500 VRB03KT P6SM FEW040 BKN100 
     FM311400 23005KT P6SM SCT025 SCT250 
     FM311800 24007KT P6SM SCT050 SCT150 
     PROB30 3120/3124 6SM TSRA BKN040CB 
     FM010000 25004KT P6SM FEW050 SCT250